Terminal Aerodrome Forecast
Issued by NWS

Home | Current Version | Previous Version | Text Only | Print | Product List | Glossary On
Versions: 1 2 3 4 5 6 7 8 9 10 11 12 13 14 15 16 17
000
FTUS46 KSTO 281100
TAFSAC
TAF
KSAC 281123Z 2812/2912 33005KT 4SM BR SCT150
      TEMPO 2814/2818 2SM BR SCT001
     FM281900 33006KT P6SM BKN200
     FM290300 VRB04KT 4SM BR BKN200
     FM290900 VRB03KT 2SM BR BKN200=

USA.gov is the U.S. government's official web portal to all federal, state and local government web resources and services.